Time;durP1;ratioP1;P1;durP2;ratioP2;P2;SDS_P1;SDS_P2;PMS_P1;PMS_P2;Temp;Humidity;BMP_temperature;BMP_pressure;BME280_temperature;BME280_humidity;BME280_pressure;Samples;Min_cycle;Max_cycle;Signal;HPM_P1;HPM_P2
2023/12/25 00:02:27;;;;;;;20.90;11.20;;;;;;;1.58;64.02;100074.17;107591;1251;111020;-65
2023/12/25 00:04:56;;;;;;;15.50;10.20;;;;;;;1.59;63.99;100071.15;107586;1251;107234;-64
2023/12/25 00:07:24;;;;;;;16.20;10.30;;;;;;;1.57;63.94;100079.55;107557;1251;107143;-64
2023/12/25 00:09:52;;;;;;;18.30;9.70;;;;;;;1.55;64.10;100080.21;107547;1251;96481;-67
2023/12/25 00:12:23;;;;;;;18.20;9.50;;;;;;;1.54;64.03;100083.95;107490;1250;96542;-65
2023/12/25 00:14:51;;;;;;;16.70;9.20;;;;;;;1.54;64.06;100086.63;107589;1254;109706;-66
2023/12/25 00:17:20;;;;;;;18.50;9.30;;;;;;;1.53;64.09;100089.15;107581;1251;108420;-68
2023/12/25 00:19:48;;;;;;;17.50;9.70;;;;;;;1.52;64.24;100085.48;107587;1251;107876;-67
2023/12/25 00:22:17;;;;;;;18.40;9.20;;;;;;;1.52;64.14;100088.87;107616;1254;96480;-66
2023/12/25 00:24:46;;;;;;;21.40;9.40;;;;;;;1.49;64.38;100075.27;107601;1254;97000;-65
2023/12/25 00:27:14;;;;;;;17.40;9.30;;;;;;;1.47;64.46;100073.06;107573;1251;109758;-66
2023/12/25 00:29:43;;;;;;;16.80;9.20;;;;;;;1.46;64.75;100072.12;107567;1251;109660;-69
2023/12/25 00:32:12;;;;;;;14.40;9.30;;;;;;;1.45;64.61;100068.08;107569;1251;108833;-67
2023/12/25 00:34:42;;;;;;;16.60;9.30;;;;;;;1.47;64.93;100064.45;107593;1251;96481;-65
2023/12/25 00:37:11;;;;;;;14.70;9.00;;;;;;;1.49;65.18;100064.65;107606;1251;97038;-65
2023/12/25 00:39:39;;;;;;;15.20;9.00;;;;;;;1.53;65.33;100058.39;107658;1256;110393;-65
2023/12/25 00:42:08;;;;;;;13.40;8.10;;;;;;;1.59;65.72;100070.39;107519;1254;108220;-66
2023/12/25 00:44:36;;;;;;;16.00;9.00;;;;;;;1.64;65.84;100072.91;107559;1250;107662;-66
2023/12/25 00:47:04;;;;;;;16.20;8.10;;;;;;;1.70;66.07;100073.61;107539;1251;96492;-66
2023/12/25 00:49:33;;;;;;;15.80;9.30;;;;;;;1.79;66.28;100067.04;107611;1253;96623;-66
2023/12/25 00:52:01;;;;;;;15.80;9.00;;;;;;;1.88;66.23;100071.58;107561;1251;109415;-65
2023/12/25 00:54:31;;;;;;;14.50;8.80;;;;;;;1.96;66.18;100058.91;107607;1251;107804;-66
2023/12/25 00:57:00;;;;;;;16.50;9.10;;;;;;;2.01;66.27;100043.34;107537;1251;108255;-64
2023/12/25 00:59:28;;;;;;;12.60;7.90;;;;;;;2.02;66.21;100050.89;107542;1254;96475;-66
2023/12/25 01:01:57;;;;;;;13.40;8.40;;;;;;;2.06;66.36;100054.20;107537;1251;97194;-67
2023/12/25 01:04:25;;;;;;;12.80;8.20;;;;;;;2.11;66.35;100042.69;107529;1250;109351;-67
2023/12/25 01:06:54;;;;;;;15.40;8.80;;;;;;;2.20;66.66;100037.71;107546;1251;108578;-66
2023/12/25 01:09:22;;;;;;;12.20;7.80;;;;;;;2.27;66.68;100048.80;107488;1251;108418;-65
2023/12/25 01:11:51;;;;;;;17.00;9.20;;;;;;;2.25;66.43;100056.83;107481;1251;96477;-65
2023/12/25 01:14:19;;;;;;;14.10;8.40;;;;;;;2.23;66.24;100052.41;107627;1251;97117;-68
2023/12/25 01:16:48;;;;;;;15.70;9.20;;;;;;;2.19;65.87;100045.89;107608;1251;110483;-65
2023/12/25 01:19:16;;;;;;;15.60;8.40;;;;;;;2.14;65.89;100037.54;107634;1252;110012;-66
2023/12/25 01:21:44;;;;;;;16.90;8.60;;;;;;;2.08;65.94;100037.08;107566;1254;108254;-66
2023/12/25 01:24:13;;;;;;;14.10;8.10;;;;;;;1.98;65.49;100025.17;107529;1251;96552;-66
2023/12/25 01:26:41;;;;;;;18.30;8.80;;;;;;;1.86;65.10;100023.43;107571;1251;97082;-65
2023/12/25 01:29:10;;;;;;;16.40;8.60;;;;;;;1.74;65.41;100019.25;107645;1251;110820;-66
2023/12/25 01:31:40;;;;;;;15.20;9.70;;;;;;;1.64;65.48;100015.66;107540;1251;107948;-65
2023/12/25 01:34:08;;;;;;;33.20;12.90;;;;;;;1.56;65.74;100008.94;107477;1251;108487;-66
2023/12/25 01:36:38;;;;;;;44.10;14.80;;;;;;;1.45;65.82;100002.38;107549;1251;97567;-65
2023/12/25 01:39:07;;;;;;;39.10;14.90;;;;;;;1.35;65.90;99994.17;107607;1251;96339;-65
2023/12/25 01:41:35;;;;;;;39.20;13.60;;;;;;;1.29;65.96;99999.84;107561;1251;110269;-66
2023/12/25 01:44:03;;;;;;;36.50;12.70;;;;;;;1.23;65.83;99997.00;107541;1251;108435;-65
2023/12/25 01:46:41;;;;;;;31.20;12.00;;;;;;;1.15;65.83;99994.48;107579;1251;108512;-66
2023/12/25 01:49:10;;;;;;;40.90;15.60;;;;;;;1.08;65.79;99999.34;107601;1251;96477;-67
2023/12/25 01:51:38;;;;;;;51.00;16.20;;;;;;;1.00;65.69;99983.95;107602;1251;96809;-70
2023/12/25 01:54:07;;;;;;;36.10;13.80;;;;;;;0.92;66.01;99978.91;107561;1251;110537;-70
2023/12/25 01:56:37;;;;;;;40.90;13.20;;;;;;;0.87;65.86;99972.19;107559;1251;108335;-65
2023/12/25 01:59:05;;;;;;;34.80;13.80;;;;;;;0.81;65.80;99967.42;107601;1251;107481;-66
2023/12/25 02:01:33;;;;;;;28.80;10.80;;;;;;;0.75;66.18;99963.04;107557;1251;96459;-67
2023/12/25 02:04:01;;;;;;;43.60;14.00;;;;;;;0.71;66.11;99956.05;107633;1251;96369;-65
2023/12/25 02:06:30;;;;;;;21.50;10.30;;;;;;;0.66;66.43;99950.15;107521;1251;110982;-65
2023/12/25 02:08:59;;;;;;;15.40;7.60;;;;;;;0.59;66.19;99941.04;107533;1251;107656;-65
2023/12/25 02:11:28;;;;;;;15.00;8.60;;;;;;;0.56;66.41;99934.14;107562;1251;109223;-67
2023/12/25 02:14:01;;;;;;;12.90;8.00;;;;;;;0.56;66.87;99933.98;107577;1251;96485;-65
2023/12/25 02:16:30;;;;;;;24.30;10.60;;;;;;;0.58;66.87;99935.95;107633;1251;96470;-65
2023/12/25 02:18:58;;;;;;;19.70;10.10;;;;;;;0.61;67.43;99932.09;107520;1254;109372;-64
2023/12/25 02:21:27;;;;;;;19.30;9.60;;;;;;;0.65;67.61;99930.61;107480;1251;107537;-65
2023/12/25 02:23:59;;;;;;;23.00;9.70;;;;;;;0.70;67.69;99928.05;107586;1251;107526;-67
2023/12/25 02:26:28;;;;;;;14.60;8.20;;;;;;;0.76;68.06;99920.73;107472;1251;96482;-66
2023/12/25 02:28:57;;;;;;;14.20;7.80;;;;;;;0.82;68.25;99918.48;107497;1251;96483;-65
2023/12/25 02:31:26;;;;;;;20.20;8.30;;;;;;;0.87;68.47;99926.07;107626;1253;109749;-66
2023/12/25 02:33:54;;;;;;;17.90;8.70;;;;;;;0.93;68.61;99918.12;107545;1253;107722;-66
2023/12/25 02:36:23;;;;;;;13.10;7.70;;;;;;;1.02;68.85;99909.31;107561;1252;106600;-66
2023/12/25 02:38:51;;;;;;;24.80;9.80;;;;;;;1.09;68.71;99913.42;107527;1254;96475;-65
2023/12/25 02:41:19;;;;;;;21.10;9.80;;;;;;;1.18;69.13;99921.02;107551;1255;96399;-65
2023/12/25 02:43:48;;;;;;;21.50;10.30;;;;;;;1.22;69.02;99917.74;107555;1251;110101;-65
2023/12/25 02:46:16;;;;;;;32.00;12.50;;;;;;;1.24;68.68;99913.04;107473;1254;107587;-65
2023/12/25 02:48:44;;;;;;;34.10;13.40;;;;;;;1.23;68.62;99911.33;107539;1251;110071;-65
2023/12/25 02:51:13;;;;;;;36.50;14.80;;;;;;;1.24;68.74;99924.89;107617;1251;96495;-67
2023/12/25 02:53:41;;;;;;;34.50;14.10;;;;;;;1.27;68.74;99933.02;107599;1251;96545;-66
2023/12/25 02:56:11;;;;;;;40.30;15.10;;;;;;;1.28;68.72;99926.55;107613;1250;110735;-65
2023/12/25 02:58:39;;;;;;;29.30;13.00;;;;;;;1.31;68.53;99916.31;107585;1250;106964;-68
2023/12/25 03:01:08;;;;;;;32.80;14.70;;;;;;;1.32;68.28;99914.29;107578;1254;107758;-68
2023/12/25 03:03:36;;;;;;;30.60;13.20;;;;;;;1.31;68.18;99915.11;107499;1253;96560;-66
2023/12/25 03:06:04;;;;;;;27.10;12.10;;;;;;;1.30;68.00;99914.80;107599;1251;97048;-65
2023/12/25 03:08:33;;;;;;;26.00;13.10;;;;;;;1.28;67.92;99909.27;107532;1254;110261;-67
2023/12/25 03:11:01;;;;;;;16.90;9.90;;;;;;;1.25;67.94;99913.15;107618;1254;107070;-66
2023/12/25 03:13:29;;;;;;;27.50;11.90;;;;;;;1.21;67.86;99903.84;107554;1253;108148;-65
2023/12/25 03:15:58;;;;;;;21.50;12.10;;;;;;;1.19;67.76;99901.16;107609;1254;97140;-66
2023/12/25 03:18:26;;;;;;;22.00;11.20;;;;;;;1.16;67.69;99897.46;107561;1253;96398;-65
2023/12/25 03:20:55;;;;;;;28.30;12.80;;;;;;;1.14;67.78;99890.19;107589;1254;111785;-66
2023/12/25 03:23:23;;;;;;;34.30;15.90;;;;;;;1.11;67.76;99888.95;107517;1254;108481;-64
2023/12/25 03:25:52;;;;;;;62.10;22.30;;;;;;;1.08;67.75;99891.95;107599;1254;108355;-65
2023/12/25 03:28:21;;;;;;;66.40;24.70;;;;;;;1.04;67.61;99888.30;107545;1251;96477;-66
2023/12/25 03:30:49;;;;;;;41.70;16.30;;;;;;;1.00;67.65;99885.95;107579;1253;97312;-67
2023/12/25 03:33:18;;;;;;;37.90;15.70;;;;;;;0.96;67.72;99885.81;107545;1254;109264;-68
2023/12/25 03:35:46;;;;;;;41.20;15.90;;;;;;;0.93;67.86;99882.43;107573;1251;108447;-69
2023/12/25 03:38:15;;;;;;;27.10;12.80;;;;;;;0.91;67.88;99878.52;107552;1251;107650;-65
2023/12/25 03:40:44;;;;;;;20.10;9.50;;;;;;;0.90;67.92;99868.36;107640;1253;96695;-65
2023/12/25 03:43:12;;;;;;;16.10;7.40;;;;;;;0.89;67.99;99870.56;107548;1254;97015;-65
2023/12/25 03:45:41;;;;;;;14.10;8.00;;;;;;;0.86;68.15;99866.13;107588;1254;109850;-66
2023/12/25 03:48:09;;;;;;;16.20;8.60;;;;;;;0.86;68.20;99866.81;107631;1254;107444;-65
2023/12/25 03:50:38;;;;;;;15.30;8.50;;;;;;;0.89;68.44;99872.47;107572;1254;108220;-67
2023/12/25 03:53:06;;;;;;;17.30;8.90;;;;;;;0.93;68.78;99866.42;107574;1251;96475;-66
2023/12/25 03:55:37;;;;;;;23.80;11.30;;;;;;;0.98;68.87;99866.81;107670;1251;97109;-66
2023/12/25 03:58:07;;;;;;;19.50;9.20;;;;;;;1.03;69.16;99868.10;107569;1251;109752;-65
2023/12/25 04:00:35;;;;;;;26.30;11.40;;;;;;;1.11;69.50;99866.18;107596;1254;107899;-65
2023/12/25 04:03:04;;;;;;;21.40;11.50;;;;;;;1.20;69.76;99867.36;107558;1251;107409;-66
2023/12/25 04:05:32;;;;;;;22.70;11.50;;;;;;;1.31;69.95;99864.06;107575;1251;96382;-68
2023/12/25 04:08:01;;;;;;;27.20;12.40;;;;;;;1.39;69.68;99862.58;107565;1251;97025;-69
2023/12/25 04:10:30;;;;;;;25.30;10.40;;;;;;;1.50;69.90;99868.63;107545;1254;110267;-65
2023/12/25 04:12:58;;;;;;;24.70;10.10;;;;;;;1.58;69.83;99872.37;107597;1253;108539;-66
2023/12/25 04:15:26;;;;;;;33.20;13.30;;;;;;;1.65;69.84;99865.19;107523;1255;107188;-66
2023/12/25 04:17:56;;;;;;;44.30;18.80;;;;;;;1.72;70.07;99861.90;107560;1253;96485;-67
2023/12/25 04:20:25;;;;;;;64.80;23.30;;;;;;;1.80;70.00;99850.01;107675;1252;96383;-67
2023/12/25 04:22:53;;;;;;;57.80;22.90;;;;;;;1.89;70.07;99851.95;107573;1254;109937;-66
2023/12/25 04:25:21;;;;;;;48.90;18.00;;;;;;;1.97;70.08;99858.42;107550;1254;108478;-65
2023/12/25 04:27:51;;;;;;;56.60;22.00;;;;;;;2.02;69.83;99854.95;107590;1253;108144;-65
2023/12/25 04:30:21;;;;;;;36.50;15.80;;;;;;;2.00;69.65;99852.73;107643;1254;96478;-66
2023/12/25 04:32:49;;;;;;;36.60;15.50;;;;;;;1.98;69.35;99852.34;107527;1256;96376;-65
2023/12/25 04:35:18;;;;;;;35.00;15.00;;;;;;;2.00;69.68;99855.23;107564;1251;109203;-68
2023/12/25 04:37:46;;;;;;;31.10;14.50;;;;;;;2.02;69.53;99858.66;107572;1250;107365;-69
2023/12/25 04:40:14;;;;;;;37.90;16.30;;;;;;;2.04;69.62;99858.17;107589;1251;107731;-69
2023/12/25 04:42:43;;;;;;;32.70;16.30;;;;;;;2.06;69.51;99855.73;107574;1251;96704;-65
2023/12/25 04:45:12;;;;;;;31.20;14.20;;;;;;;2.06;69.09;99856.11;107594;1251;96517;-64
2023/12/25 04:47:41;;;;;;;29.40;14.50;;;;;;;2.02;69.27;99850.85;107606;1256;110677;-66
2023/12/25 04:50:10;;;;;;;31.00;15.30;;;;;;;2.02;69.64;99852.11;107615;1251;108312;-65
2023/12/25 04:52:38;;;;;;;35.40;15.60;;;;;;;2.03;69.43;99851.50;107605;1252;107831;-65
2023/12/25 04:55:07;;;;;;;29.00;14.90;;;;;;;2.05;69.76;99854.04;107557;1252;96485;-64
2023/12/25 04:57:35;;;;;;;29.50;14.60;;;;;;;2.04;69.69;99851.45;107644;1251;97041;-65
2023/12/25 05:00:04;;;;;;;35.90;15.00;;;;;;;2.02;69.87;99854.06;107533;1253;110417;-65
2023/12/25 05:02:33;;;;;;;25.80;13.50;;;;;;;2.00;69.71;99859.14;107564;1253;106479;-64
2023/12/25 05:05:02;;;;;;;32.90;15.00;;;;;;;1.98;69.86;99862.05;107586;1254;107404;-68
2023/12/25 05:07:32;;;;;;;32.30;13.80;;;;;;;1.96;69.92;99858.86;107586;1254;96552;-67
2023/12/25 05:10:00;;;;;;;33.90;15.10;;;;;;;1.97;70.06;99865.39;107615;1252;96493;-69
2023/12/25 05:12:29;;;;;;;28.00;13.80;;;;;;;1.95;70.38;99855.23;107577;1252;109653;-68
2023/12/25 05:14:57;;;;;;;9.40;5.20;;;;;;;1.98;70.34;99850.62;107554;1253;107759;-65
2023/12/25 05:17:25;;;;;;;10.00;4.80;;;;;;;2.03;70.71;99850.27;107533;1254;108582;-64
2023/12/25 05:19:54;;;;;;;8.20;4.40;;;;;;;2.16;71.43;99849.75;107543;1252;96632;-64
2023/12/25 05:22:22;;;;;;;5.10;2.90;;;;;;;2.32;71.68;99845.66;107584;1254;96485;-64
2023/12/25 05:24:51;;;;;;;22.50;11.70;;;;;;;2.46;71.93;99836.52;107597;1254;110518;-64
2023/12/25 05:27:19;;;;;;;12.70;6.80;;;;;;;2.55;71.69;99833.47;107593;1254;108118;-66
2023/12/25 05:29:47;;;;;;;7.30;5.00;;;;;;;2.61;71.45;99825.05;107538;1255;108352;-63
2023/12/25 05:32:16;;;;;;;3.50;2.70;;;;;;;2.72;73.12;99831.41;107577;1254;96457;-63
2023/12/25 05:34:44;;;;;;;4.80;2.80;;;;;;;2.91;73.65;99836.25;107587;1253;96481;-66
2023/12/25 05:37:13;;;;;;;4.30;3.10;;;;;;;3.10;73.80;99838.26;107627;1253;110535;-70
2023/12/25 05:39:41;;;;;;;4.10;2.30;;;;;;;3.28;74.34;99841.03;107600;1254;107186;-70
2023/12/25 05:42:09;;;;;;;4.50;2.40;;;;;;;3.50;74.73;99842.95;107599;1255;107713;-69
2023/12/25 05:44:37;;;;;;;4.30;2.40;;;;;;;3.73;74.90;99841.98;107567;1252;96566;-70
2023/12/25 05:47:06;;;;;;;5.40;2.40;;;;;;;3.96;74.78;99843.81;107581;1254;97010;-69
2023/12/25 05:49:38;;;;;;;6.50;2.40;;;;;;;4.21;74.61;99847.23;107556;1254;108460;-69
2023/12/25 05:52:07;;;;;;;4.90;2.90;;;;;;;4.46;74.22;99853.33;107598;1254;108406;-65
2023/12/25 05:54:35;;;;;;;2.80;2.10;;;;;;;4.67;73.67;99849.02;107536;1253;107499;-66
2023/12/25 05:57:03;;;;;;;3.50;2.00;;;;;;;4.86;72.47;99849.49;107548;1254;96511;-64
2023/12/25 05:59:32;;;;;;;2.90;1.80;;;;;;;4.99;72.10;99850.26;107543;1254;96449;-65
2023/12/25 06:02:00;;;;;;;4.50;1.80;;;;;;;5.09;71.63;99851.56;107529;1254;113092;-66
2023/12/25 06:04:28;;;;;;;3.30;1.90;;;;;;;5.19;71.20;99849.70;107566;1254;107912;-66
2023/12/25 06:06:57;;;;;;;3.10;1.70;;;;;;;5.28;71.10;99845.96;107564;1254;108537;-65
2023/12/25 06:09:26;;;;;;;3.70;2.20;;;;;;;5.35;70.65;99846.64;107575;1254;96939;-67
2023/12/25 06:11:55;;;;;;;3.50;1.80;;;;;;;5.44;70.40;99848.42;107623;1253;97090;-66
2023/12/25 06:14:23;;;;;;;3.50;2.00;;;;;;;5.50;70.50;99847.70;107626;1256;109789;-71
2023/12/25 06:16:52;;;;;;;4.70;2.10;;;;;;;5.59;70.14;99842.90;107585;1251;107944;-71
2023/12/25 06:19:20;;;;;;;4.40;2.10;;;;;;;5.70;70.06;99846.45;107601;1252;108434;-71
2023/12/25 06:21:49;;;;;;;3.70;2.10;;;;;;;5.81;69.92;99842.84;107526;1254;96501;-71
2023/12/25 06:24:17;;;;;;;4.60;1.90;;;;;;;5.89;69.15;99853.59;107557;1250;96484;-69
2023/12/25 06:26:46;;;;;;;3.30;2.00;;;;;;;5.95;68.82;99859.27;107600;1251;110054;-69
2023/12/25 06:29:14;;;;;;;4.60;2.50;;;;;;;6.01;68.76;99861.57;107591;1251;107094;-65
2023/12/25 06:31:46;;;;;;;4.20;2.20;;;;;;;6.07;68.29;99868.66;107579;1251;108149;-66
2023/12/25 06:34:16;;;;;;;3.50;2.50;;;;;;;6.09;68.19;99880.64;107573;1251;96468;-65
2023/12/25 06:36:44;;;;;;;3.00;2.30;;;;;;;6.13;68.14;99886.70;107582;1251;96354;-65
2023/12/25 06:39:12;;;;;;;9.00;5.30;;;;;;;6.11;67.77;99887.02;107659;1251;110480;-65
2023/12/25 06:41:41;;;;;;;9.50;5.10;;;;;;;6.12;67.77;99891.43;107501;1254;108323;-66
2023/12/25 06:44:09;;;;;;;2.90;2.40;;;;;;;6.15;67.73;99893.52;107560;1254;108595;-65
2023/12/25 06:46:39;;;;;;;5.10;2.60;;;;;;;6.20;67.47;99894.52;107562;1251;97864;-69
2023/12/25 06:49:07;;;;;;;6.30;2.70;;;;;;;6.25;67.19;99894.95;107609;1254;97034;-69
2023/12/25 06:51:36;;;;;;;3.90;3.10;;;;;;;6.31;67.12;99902.28;107542;1254;110430;-72
2023/12/25 06:54:04;;;;;;;4.40;3.00;;;;;;;6.38;67.08;99899.73;107568;1251;108028;-69
2023/12/25 06:56:33;;;;;;;5.20;2.80;;;;;;;6.46;67.40;99905.86;107577;1251;107746;-72
2023/12/25 06:59:01;;;;;;;4.90;2.40;;;;;;;6.51;67.15;99915.92;107590;1254;96577;-68
2023/12/25 07:01:30;;;;;;;4.20;2.30;;;;;;;6.59;67.34;99914.16;107583;1251;97112;-70
2023/12/25 07:03:58;;;;;;;4.90;2.80;;;;;;;6.66;67.40;99911.92;107574;1253;110741;-67
2023/12/25 07:06:26;;;;;;;3.80;2.70;;;;;;;6.73;67.33;99920.81;107621;1254;107982;-67
2023/12/25 07:08:55;;;;;;;5.10;2.80;;;;;;;6.82;67.18;99925.20;107529;1251;107783;-65
2023/12/25 07:11:23;;;;;;;16.30;9.50;;;;;;;6.90;67.05;99935.23;107522;1254;96485;-65
2023/12/25 07:13:51;;;;;;;5.70;3.40;;;;;;;7.01;66.90;99943.41;107613;1254;96551;-65
2023/12/25 07:16:23;;;;;;;9.90;5.70;;;;;;;7.10;66.79;99949.23;107563;1251;109993;-66
2023/12/25 07:18:53;;;;;;;4.60;3.00;;;;;;;7.17;66.63;99955.90;107519;1251;108510;-67
2023/12/25 07:21:21;;;;;;;4.70;2.40;;;;;;;7.24;66.04;99955.45;107480;1251;107119;-67
2023/12/25 07:23:50;;;;;;;4.80;2.70;;;;;;;7.33;65.94;99946.84;107619;1253;96766;-67
2023/12/25 07:26:19;;;;;;;4.40;2.50;;;;;;;7.44;65.72;99946.27;107564;1254;97051;-66
2023/12/25 07:28:48;;;;;;;7.70;3.60;;;;;;;7.52;65.27;99942.65;107602;1254;110898;-70
2023/12/25 07:31:18;;;;;;;5.00;3.40;;;;;;;7.62;64.96;99941.95;107601;1254;107904;-71
2023/12/25 07:33:50;;;;;;;14.00;8.50;;;;;;;7.72;64.61;99941.82;107590;1253;107892;-69
2023/12/25 07:36:19;;;;;;;8.80;3.60;;;;;;;7.82;64.43;99941.07;107603;1255;96578;-68
2023/12/25 07:38:47;;;;;;;4.90;2.80;;;;;;;7.91;64.28;99942.26;107578;1251;96504;-69
2023/12/25 07:41:16;;;;;;;4.90;3.20;;;;;;;8.00;64.23;99938.05;107589;1251;110241;-69
2023/12/25 07:43:44;;;;;;;5.90;2.90;;;;;;;8.08;63.84;99941.80;107565;1251;108033;-66
2023/12/25 07:46:12;;;;;;;5.60;2.70;;;;;;;8.17;63.89;99953.10;107573;1251;108030;-65
2023/12/25 07:48:41;;;;;;;6.00;3.30;;;;;;;8.29;63.83;99957.04;107589;1251;96497;-64
2023/12/25 07:51:09;;;;;;;9.10;3.60;;;;;;;8.38;63.92;99960.46;107551;1251;96353;-65
2023/12/25 07:53:37;;;;;;;5.30;3.30;;;;;;;8.47;63.50;99951.76;107630;1254;109043;-63
2023/12/25 07:56:06;;;;;;;5.30;3.00;;;;;;;8.54;63.53;99945.27;107587;1254;108368;-66
2023/12/25 07:58:35;;;;;;;5.50;3.30;;;;;;;8.60;63.36;99943.42;107556;1255;107591;-67
2023/12/25 08:01:04;;;;;;;12.10;3.50;;;;;;;8.66;63.07;99944.75;107540;1254;96480;-68
2023/12/25 08:03:32;;;;;;;8.50;4.00;;;;;;;8.68;63.03;99958.27;107607;1254;97025;-70
2023/12/25 08:06:02;;;;;;;6.10;3.20;;;;;;;8.74;62.96;99969.18;107628;1254;110382;-69
2023/12/25 08:08:31;;;;;;;7.20;3.80;;;;;;;8.81;62.83;99970.69;107632;1251;108762;-69
2023/12/25 08:10:59;;;;;;;8.00;3.90;;;;;;;8.93;62.85;99975.45;107577;1256;108339;-70
2023/12/25 08:13:28;;;;;;;7.50;4.20;;;;;;;9.05;62.65;99970.70;107578;1251;96514;-71
2023/12/25 08:15:58;;;;;;;15.50;10.10;;;;;;;9.15;62.71;99972.79;107601;1250;97095;-70
2023/12/25 08:18:27;;;;;;;56.50;34.30;;;;;;;9.19;62.80;99976.92;107568;1251;110285;-69
2023/12/25 08:20:55;;;;;;;11.10;6.10;;;;;;;9.21;62.91;99973.84;107591;1256;107344;-72
2023/12/25 08:23:24;;;;;;;6.50;4.50;;;;;;;9.32;62.67;99964.77;107582;1254;107168;-69
2023/12/25 08:25:52;;;;;;;9.70;5.10;;;;;;;9.70;62.25;99954.33;107577;1254;96564;-71
2023/12/25 08:28:20;;;;;;;8.80;4.80;;;;;;;10.17;61.70;99946.41;107568;1253;97020;-70
2023/12/25 08:30:49;;;;;;;6.30;4.60;;;;;;;10.56;61.43;99939.48;107664;1251;110637;-69
2023/12/25 08:33:17;;;;;;;6.90;4.20;;;;;;;11.02;60.79;99935.85;107540;1254;107939;-71
2023/12/25 08:35:46;;;;;;;6.50;4.00;;;;;;;11.44;60.22;99924.73;107538;1256;107302;-69
2023/12/25 08:38:14;;;;;;;7.10;4.80;;;;;;;11.79;59.85;99930.14;107600;1256;96495;-71
2023/12/25 08:40:43;;;;;;;8.40;4.90;;;;;;;12.14;59.67;99936.37;107566;1254;96497;-69
2023/12/25 08:43:11;;;;;;;15.10;7.40;;;;;;;12.53;59.05;99937.72;106877;1253;857755;-70
2023/12/25 08:45:40;;;;;;;9.50;5.80;;;;;;;13.03;58.19;99942.77;107591;1254;106736;-70
2023/12/25 08:48:09;;;;;;;6.90;4.60;;;;;;;13.52;57.21;99944.48;107631;1256;107050;-69
2023/12/25 08:50:37;;;;;;;7.90;4.50;;;;;;;14.09;56.44;99943.70;107538;1256;96575;-70
2023/12/25 08:53:06;;;;;;;6.30;4.10;;;;;;;14.70;55.39;99942.96;107559;1254;96510;-69
2023/12/25 08:55:34;;;;;;;6.00;3.80;;;;;;;15.27;52.83;99948.06;107638;1254;110468;-69
2023/12/25 08:58:03;;;;;;;5.80;3.90;;;;;;;15.71;51.49;99949.89;107610;1254;107958;-69
2023/12/25 09:00:32;;;;;;;7.60;3.30;;;;;;;15.55;51.03;99947.73;107585;1251;107097;-69
2023/12/25 09:03:00;;;;;;;6.20;3.70;;;;;;;15.42;51.50;99943.48;107522;1256;96488;-70
2023/12/25 09:05:29;;;;;;;6.30;3.00;;;;;;;15.24;50.56;99938.85;107532;1254;96347;-69
2023/12/25 09:07:57;;;;;;;7.20;3.10;;;;;;;15.05;50.17;99937.80;107551;1256;110455;-69
2023/12/25 09:10:25;;;;;;;9.10;2.80;;;;;;;14.86;49.44;99933.86;107576;1256;107724;-69
2023/12/25 09:12:53;;;;;;;6.00;3.40;;;;;;;14.72;49.90;99940.34;107591;1254;108485;-68
2023/12/25 09:15:22;;;;;;;4.90;3.10;;;;;;;14.58;48.65;99930.29;107622;1251;96354;-72
2023/12/25 09:17:50;;;;;;;4.80;3.40;;;;;;;14.46;48.18;99930.98;107531;1251;96475;-70
2023/12/25 09:20:18;;;;;;;7.80;3.50;;;;;;;14.35;47.82;99933.99;107604;1251;109268;-69
2023/12/25 09:22:47;;;;;;;6.50;3.50;;;;;;;14.34;48.07;99934.15;107587;1254;108454;-70
2023/12/25 09:25:16;;;;;;;7.70;3.70;;;;;;;14.53;48.58;99936.96;107555;1256;108374;-71
2023/12/25 09:27:44;;;;;;;10.10;4.50;;;;;;;14.81;48.55;99933.73;107490;1257;96597;-70
2023/12/25 09:30:14;;;;;;;14.30;4.60;;;;;;;15.35;48.54;99935.87;107628;1252;96371;-71
2023/12/25 09:32:43;;;;;;;9.60;5.30;;;;;;;16.19;48.31;99927.34;107619;1253;110019;-71
2023/12/25 09:35:12;;;;;;;14.20;6.80;;;;;;;16.84;48.17;99924.64;107603;1251;108537;-71
2023/12/25 09:37:41;;;;;;;12.40;6.50;;;;;;;17.10;47.71;99923.29;107579;1254;108334;-70
2023/12/25 09:40:10;;;;;;;14.50;7.70;;;;;;;17.65;46.81;99926.94;107637;1254;96542;-70
2023/12/25 09:42:39;;;;;;;14.40;6.90;;;;;;;18.40;45.85;99935.20;107600;1256;96437;-69
2023/12/25 09:45:10;;;;;;;12.10;5.10;;;;;;;18.69;44.84;99930.90;107565;1256;110068;-71
2023/12/25 09:47:40;;;;;;;13.30;5.80;;;;;;;18.71;44.44;99930.60;107626;1251;107533;-70
2023/12/25 09:50:08;;;;;;;10.40;5.40;;;;;;;19.10;44.45;99931.33;107559;1256;108550;-69
2023/12/25 09:52:37;;;;;;;16.40;5.90;;;;;;;19.24;42.42;99937.34;107572;1251;96486;-70
2023/12/25 09:55:08;;;;;;;11.80;5.20;;;;;;;19.13;40.57;99932.33;107562;1257;96656;-71
2023/12/25 09:57:39;;;;;;;16.60;7.60;;;;;;;19.03;40.59;99933.15;107538;1254;110698;-71
2023/12/25 10:00:08;;;;;;;19.90;11.40;;;;;;;19.04;39.79;99937.38;107565;1256;107821;-70
2023/12/25 10:02:46;;;;;;;6.50;2.70;;;;;;;19.02;39.29;99941.83;107638;1256;107518;-70
2023/12/25 10:05:15;;;;;;;28.10;14.10;;;;;;;19.04;39.35;99937.22;107592;1254;96563;-72
2023/12/25 10:07:43;;;;;;;15.90;8.30;;;;;;;18.98;38.38;99922.71;107614;1251;96357;-72
2023/12/25 10:10:12;;;;;;;6.20;4.20;;;;;;;18.71;37.98;99920.13;107570;1256;109919;-71
2023/12/25 10:12:46;;;;;;;5.70;3.40;;;;;;;18.39;38.77;99919.17;107593;1251;107431;-71
2023/12/25 10:15:14;;;;;;;5.80;2.70;;;;;;;17.99;38.48;99914.38;107529;1255;108472;-71
2023/12/25 10:17:43;;;;;;;9.10;3.30;;;;;;;17.79;39.12;99912.17;107513;1257;96488;-70
2023/12/25 10:20:18;;;;;;;10.90;3.50;;;;;;;17.49;39.21;99909.42;107532;1255;96389;-69
2023/12/25 10:22:46;;;;;;;16.40;4.70;;;;;;;17.05;39.87;99907.40;107566;1254;109614;-70
2023/12/25 10:25:16;;;;;;;13.30;7.10;;;;;;;16.77;40.75;99916.77;107538;1254;108733;-70
2023/12/25 10:27:45;;;;;;;15.30;8.00;;;;;;;16.47;40.76;99907.35;107493;1251;106861;-71
2023/12/25 10:30:14;;;;;;;5.60;3.10;;;;;;;16.18;41.16;99900.55;107499;1251;96564;-70
2023/12/25 10:32:43;;;;;;;5.90;2.80;;;;;;;15.96;41.40;99909.77;107508;1254;96366;-72
2023/12/25 10:35:14;;;;;;;6.00;2.00;;;;;;;15.71;41.84;99910.10;107576;1251;109781;-70
2023/12/25 10:37:43;;;;;;;12.70;2.80;;;;;;;15.48;42.10;99906.52;107588;1255;108345;-69
2023/12/25 10:40:22;;;;;;;15.60;4.00;;;;;;;15.30;42.65;99909.38;107506;1256;107367;-71
2023/12/25 10:42:53;;;;;;;4.70;2.20;;;;;;;15.18;43.06;99907.64;107572;1254;96474;-70
2023/12/25 10:45:24;;;;;;;5.80;2.90;;;;;;;15.08;43.18;99909.41;107539;1254;96437;-70
2023/12/25 10:47:57;;;;;;;6.20;1.90;;;;;;;14.96;43.54;99911.91;107460;1251;109901;-70
2023/12/25 10:50:30;;;;;;;8.80;2.20;;;;;;;14.87;43.64;99916.50;107553;1251;108629;-70
2023/12/25 10:53:05;;;;;;;12.80;5.60;;;;;;;14.78;43.99;99929.19;107489;1251;108673;-70
2023/12/25 10:55:44;;;;;;;19.50;6.40;;;;;;;14.70;44.33;99926.08;107444;1251;96501;-70
2023/12/25 10:58:14;;;;;;;9.90;3.80;;;;;;;14.63;44.47;99921.94;107569;1251;96363;-70
2023/12/25 11:00:46;;;;;;;12.60;3.20;;;;;;;14.59;44.33;99909.71;107484;1257;110616;-69
2023/12/25 11:03:15;;;;;;;8.30;2.20;;;;;;;14.52;44.83;99902.98;107540;1256;108264;-70
2023/12/25 11:05:44;;;;;;;8.20;1.60;;;;;;;14.52;45.04;99898.35;107624;1253;107104;-71
2023/12/25 11:08:14;;;;;;;5.10;1.30;;;;;;;14.53;44.99;99904.66;107626;1255;96464;-70
2023/12/25 11:10:54;;;;;;;6.70;1.70;;;;;;;14.54;44.91;99902.59;107566;1251;97028;-69
2023/12/25 11:13:25;;;;;;;4.80;1.90;;;;;;;14.56;45.16;99902.84;107492;1251;109968;-69
2023/12/25 11:15:53;;;;;;;13.10;2.60;;;;;;;14.55;45.24;99898.27;107611;1256;108347;-70
2023/12/25 11:18:22;;;;;;;8.20;1.70;;;;;;;14.52;45.30;99905.34;107579;1251;108691;-70
2023/12/25 11:21:11;;;;;;;8.40;1.80;;;;;;;14.51;45.49;99900.45;107575;1254;96473;-70
2023/12/25 11:23:41;;;;;;;7.10;1.70;;;;;;;14.48;45.57;99889.61;107564;1251;97077;-68
2023/12/25 11:26:12;;;;;;;8.80;2.00;;;;;;;14.46;45.84;99899.89;107601;1253;110508;-70
2023/12/25 11:28:42;;;;;;;4.70;2.00;;;;;;;14.44;45.83;99908.87;107564;1256;108623;-69